Time;durP1;ratioP1;P1;durP2;ratioP2;P2;SDS_P1;SDS_P2;PMS_P1;PMS_P2;Temp;Humidity;BMP_temperature;BMP_pressure;BME280_temperature;BME280_humidity;BME280_pressure;Samples;Min_cycle;Max_cycle;Signal;HPM_P1;HPM_P2
2021/03/06 00:00:47;;;;;;;15.00;6.20;;;-3.00;70.40;;;;;;5099922;28;20451;-86
2021/03/06 00:03:15;;;;;;;6.70;5.70;;;-3.00;69.90;;;;;;5106295;28;20478;-84
2021/03/06 00:05:41;;;;;;;6.70;5.23;;;-2.90;70.20;;;;;;5107761;28;20936;-83
2021/03/06 00:08:07;;;;;;;8.43;5.93;;;-2.90;70.40;;;;;;5111428;28;20469;-84
2021/03/06 00:10:34;;;;;;;9.93;6.00;;;-3.00;70.70;;;;;;5108755;28;20457;-82
2021/03/06 00:13:01;;;;;;;11.17;5.87;;;-3.10;70.60;;;;;;5112164;28;20473;-81
2021/03/06 00:15:29;;;;;;;6.80;5.40;;;-3.10;70.80;;;;;;5097126;28;20449;-81
2021/03/06 00:17:56;;;;;;;8.80;6.20;;;-3.10;71.70;;;;;;5106576;28;21176;-83
2021/03/06 00:20:23;;;;;;;7.20;5.53;;;-2.80;70.80;;;;;;5100170;28;20458;-84
2021/03/06 00:22:50;;;;;;;6.33;5.60;;;-2.80;69.50;;;;;;5106431;28;20465;-82
2021/03/06 00:25:19;;;;;;;9.40;6.23;;;-2.80;69.80;;;;;;5098091;28;20573;-81
2021/03/06 00:27:47;;;;;;;8.77;6.20;;;-2.80;69.70;;;;;;5100644;28;20465;-81
2021/03/06 00:30:17;;;;;;;7.93;5.30;;;-2.90;69.60;;;;;;5101082;28;20484;-82
2021/03/06 00:32:45;;;;;;;7.93;6.03;;;-3.00;70.20;;;;;;5100087;28;20980;-81
2021/03/06 00:35:13;;;;;;;6.63;5.40;;;-3.10;70.10;;;;;;5088930;28;20463;-82
2021/03/06 00:37:39;;;;;;;10.43;6.00;;;-3.10;70.80;;;;;;5099133;28;20533;-84
2021/03/06 00:40:08;;;;;;;13.33;7.30;;;-3.10;71.50;;;;;;5103353;28;20571;-84
2021/03/06 00:42:35;;;;;;;6.57;5.40;;;-3.30;70.80;;;;;;5099995;28;20451;-81
2021/03/06 00:45:01;;;;;;;7.70;5.70;;;-3.30;71.60;;;;;;5093951;28;20446;-83
2021/03/06 00:47:29;;;;;;;7.63;5.10;;;-3.30;71.80;;;;;;5097856;28;20528;-82
2021/03/06 00:49:56;;;;;;;6.27;5.40;;;-3.20;71.20;;;;;;5098665;28;21063;-82
2021/03/06 00:52:23;;;;;;;12.03;5.73;;;-3.30;70.60;;;;;;5099132;28;20498;-82
2021/03/06 00:54:52;;;;;;;7.43;5.00;;;-3.40;70.90;;;;;;5095851;28;20486;-82
2021/03/06 00:57:19;;;;;;;6.57;5.63;;;-3.40;71.10;;;;;;5093481;28;20458;-84
2021/03/06 00:59:45;;;;;;;5.20;4.70;;;-3.50;71.00;;;;;;5092339;28;20483;-84
2021/03/06 01:02:12;;;;;;;6.27;5.63;;;-3.60;72.00;;;;;;5075040;28;20504;-84
2021/03/06 01:04:40;;;;;;;6.70;5.13;;;-3.60;72.70;;;;;;5088963;28;20465;-82
2021/03/06 01:07:09;;;;;;;9.40;5.13;;;-3.40;72.30;;;;;;5088548;28;20467;-82
2021/03/06 01:09:36;;;;;;;8.50;4.97;;;-3.50;71.60;;;;;;5084224;28;21037;-84
2021/03/06 01:12:03;;;;;;;8.50;5.43;;;-3.50;71.90;;;;;;5086038;28;20499;-82
2021/03/06 01:14:29;;;;;;;7.30;4.73;;;-3.50;71.90;;;;;;5090876;28;20969;-83
2021/03/06 01:16:56;;;;;;;8.83;5.47;;;-3.50;73.70;;;;;;5098195;28;20541;-81
2021/03/06 01:19:22;;;;;;;9.20;5.20;;;-3.50;73.30;;;;;;5090266;28;20480;-81
2021/03/06 01:21:49;;;;;;;7.40;5.37;;;-3.50;73.70;;;;;;5097716;28;20486;-85
2021/03/06 01:24:16;;;;;;;7.40;5.60;;;-3.50;74.50;;;;;;5081093;28;20448;-81
2021/03/06 01:26:42;;;;;;;7.37;5.60;;;-3.60;74.40;;;;;;5079758;28;20463;-81
2021/03/06 01:29:09;;;;;;;7.67;5.07;;;-3.50;75.50;;;;;;5098654;28;20499;-83
2021/03/06 01:31:35;;;;;;;8.53;5.67;;;-3.60;75.40;;;;;;5103173;28;20474;-84
2021/03/06 01:34:01;;;;;;;6.20;5.40;;;-3.70;75.70;;;;;;5099703;28;20449;-84
2021/03/06 01:36:28;;;;;;;8.50;6.50;;;-3.60;77.00;;;;;;5099704;28;20515;-81
2021/03/06 01:38:55;;;;;;;12.57;6.53;;;-3.70;76.20;;;;;;5100945;28;20457;-81
2021/03/06 01:41:23;;;;;;;9.07;5.83;;;-3.60;76.80;;;;;;5100621;28;20445;-83
2021/03/06 01:43:49;;;;;;;8.17;5.80;;;-3.80;77.10;;;;;;5104318;28;20476;-81
2021/03/06 01:46:15;;;;;;;8.43;5.23;;;-3.90;77.10;;;;;;5104246;28;20458;-83
2021/03/06 01:48:42;;;;;;;7.87;6.07;;;-3.90;77.40;;;;;;5107952;28;20556;-81
2021/03/06 01:51:08;;;;;;;6.00;4.43;;;-3.80;78.50;;;;;;5110426;28;20992;-82
2021/03/06 01:53:35;;;;;;;9.87;5.80;;;-3.80;78.10;;;;;;5103886;28;20460;-82
2021/03/06 01:56:02;;;;;;;7.90;5.60;;;-3.80;78.60;;;;;;5109407;28;20520;-80
2021/03/06 01:58:29;;;;;;;7.10;6.20;;;-3.90;77.80;;;;;;5107390;28;21028;-81
2021/03/06 02:00:55;;;;;;;9.70;6.20;;;-3.90;78.80;;;;;;5106559;28;20477;-81
2021/03/06 02:03:22;;;;;;;8.93;5.47;;;-3.90;81.80;;;;;;5105964;28;20894;-81
2021/03/06 02:05:49;;;;;;;8.37;5.07;;;-4.00;80.60;;;;;;5094905;28;20430;-81
2021/03/06 02:08:16;;;;;;;6.23;5.13;;;-3.90;81.80;;;;;;5112197;28;20462;-80
2021/03/06 02:10:43;;;;;;;10.07;6.30;;;-3.90;81.60;;;;;;5091192;28;20952;-75
2021/03/06 02:13:43;;;;;;;10.30;5.60;;;-3.90;82.20;;;;;;5090676;28;20443;-75
2021/03/06 02:16:23;;;;;;;6.97;5.00;;;-3.80;82.00;;;;;;5085495;28;20454;-74
2021/03/06 02:18:56;;;;;;;9.17;5.17;;;-3.70;80.90;;;;;;5089024;28;20462;-77
2021/03/06 02:21:52;;;;;;;8.33;4.63;;;-3.60;78.80;;;;;;5080511;28;20454;-76
2021/03/06 02:24:43;;;;;;;12.50;5.40;;;-3.70;77.20;;;;;;5077018;28;20526;-76
2021/03/06 02:27:20;;;;;;;13.13;5.07;;;-3.60;76.80;;;;;;5080615;28;20457;-76
2021/03/06 02:29:52;;;;;;;8.87;5.30;;;-3.70;76.10;;;;;;5080392;28;20452;-76
2021/03/06 02:32:21;;;;;;;5.27;4.70;;;-3.80;76.60;;;;;;5087093;28;20545;-75
2021/03/06 02:35:00;;;;;;;10.83;5.83;;;-3.80;78.00;;;;;;5086009;28;20446;-77
2021/03/06 02:37:28;;;;;;;6.20;5.00;;;-3.70;75.80;;;;;;5082490;28;20547;-75
2021/03/06 02:39:56;;;;;;;5.70;4.60;;;-3.70;75.50;;;;;;5087533;28;20595;-76
2021/03/06 02:42:25;;;;;;;7.73;5.10;;;-3.70;75.40;;;;;;5078503;28;20458;-76
2021/03/06 02:44:53;;;;;;;8.13;4.90;;;-3.70;74.60;;;;;;5084853;28;20449;-77
2021/03/06 02:47:20;;;;;;;9.80;4.97;;;-3.80;74.60;;;;;;5085142;28;20444;-77
2021/03/06 02:49:52;;;;;;;7.40;4.70;;;-3.90;75.20;;;;;;5085969;28;20958;-75
2021/03/06 02:52:18;;;;;;;7.03;4.20;;;-3.90;74.90;;;;;;5079842;28;20956;-74
2021/03/06 02:54:45;;;;;;;8.37;4.27;;;-4.00;75.20;;;;;;5084362;28;20536;-76
2021/03/06 02:57:20;;;;;;;6.03;4.30;;;-4.00;76.80;;;;;;5083440;28;20514;-76
2021/03/06 03:00:03;;;;;;;7.13;5.00;;;-4.00;76.60;;;;;;5082461;28;20492;-75
2021/03/06 03:02:42;;;;;;;7.53;5.00;;;-3.90;77.40;;;;;;5083435;28;20941;-75
2021/03/06 03:05:17;;;;;;;7.33;5.43;;;-4.00;76.80;;;;;;5085628;28;21190;-75
2021/03/06 03:07:49;;;;;;;7.60;5.30;;;-4.00;77.20;;;;;;5084057;28;20481;-75
2021/03/06 03:10:18;;;;;;;8.53;4.50;;;-4.00;77.10;;;;;;5085281;28;20469;-75
2021/03/06 03:12:49;;;;;;;7.53;4.83;;;-4.00;77.80;;;;;;5082381;28;20977;-75
2021/03/06 03:15:19;;;;;;;6.10;5.00;;;-4.10;77.70;;;;;;5086983;28;20970;-75
2021/03/06 03:17:48;;;;;;;9.80;5.70;;;-4.20;78.90;;;;;;5077920;28;20545;-75
2021/03/06 03:20:22;;;;;;;8.30;5.77;;;-4.30;79.20;;;;;;5085015;28;21534;-74
2021/03/06 03:22:53;;;;;;;9.57;5.40;;;-4.10;81.70;;;;;;5085532;28;20488;-76
2021/03/06 03:25:21;;;;;;;10.00;5.33;;;-4.30;81.10;;;;;;5083649;28;20596;-74
2021/03/06 03:27:50;;;;;;;6.03;5.13;;;-4.30;81.50;;;;;;5085485;28;20486;-75
2021/03/06 03:30:20;;;;;;;9.10;5.90;;;-4.30;82.80;;;;;;5086035;28;21241;-76
2021/03/06 03:32:49;;;;;;;11.80;5.50;;;-4.30;82.60;;;;;;5086237;28;20445;-76
2021/03/06 03:35:18;;;;;;;12.03;6.13;;;-4.40;82.00;;;;;;5078711;28;21289;-75
2021/03/06 03:37:45;;;;;;;7.17;5.57;;;-4.40;82.70;;;;;;5086626;28;20540;-74
2021/03/06 03:40:13;;;;;;;9.97;5.83;;;-4.30;81.90;;;;;;5086340;28;20450;-77
2021/03/06 03:42:40;;;;;;;11.53;5.10;;;-4.20;81.30;;;;;;5085687;28;20452;-75
2021/03/06 03:45:08;;;;;;;8.63;5.67;;;-4.20;81.20;;;;;;5085104;28;20466;-78
2021/03/06 03:47:48;;;;;;;7.97;5.60;;;-4.40;81.30;;;;;;5087194;28;20521;-76
2021/03/06 03:50:16;;;;;;;11.13;4.77;;;-4.20;83.40;;;;;;5084939;28;20517;-75
2021/03/06 03:52:44;;;;;;;7.43;4.97;;;-4.30;82.20;;;;;;5082966;28;20523;-75
2021/03/06 03:55:12;;;;;;;8.40;5.00;;;-4.30;81.40;;;;;;5084086;28;20904;-76
2021/03/06 03:57:39;;;;;;;12.40;5.20;;;-4.30;80.80;;;;;;5085512;28;20456;-75
2021/03/06 04:00:08;;;;;;;8.10;5.23;;;-4.30;82.10;;;;;;5082658;28;20515;-76
2021/03/06 04:02:34;;;;;;;6.43;4.80;;;-4.40;82.60;;;;;;5083368;28;21048;-76
2021/03/06 04:05:01;;;;;;;7.10;5.63;;;-4.50;83.10;;;;;;5082996;28;20493;-76
2021/03/06 04:07:28;;;;;;;6.57;5.00;;;-4.60;83.00;;;;;;5086276;28;21022;-75
2021/03/06 04:09:54;;;;;;;5.73;5.13;;;-4.70;83.70;;;;;;5087507;28;20488;-75
2021/03/06 04:12:20;;;;;;;6.23;5.60;;;-4.70;84.60;;;;;;5083210;28;20457;-75
2021/03/06 04:14:47;;;;;;;8.30;4.83;;;-4.70;85.20;;;;;;5085762;28;20528;-76
2021/03/06 04:17:13;;;;;;;10.60;5.00;;;-4.60;87.30;;;;;;5083012;28;20509;-75
2021/03/06 04:19:39;;;;;;;11.03;5.83;;;-4.70;84.70;;;;;;5086050;28;20511;-76
2021/03/06 04:22:07;;;;;;;8.27;5.60;;;-4.50;84.20;;;;;;5083620;28;20545;-77
2021/03/06 04:24:33;;;;;;;6.00;4.97;;;-4.60;83.80;;;;;;5085992;28;20463;-76
2021/03/06 04:26:59;;;;;;;6.17;4.80;;;-4.70;83.20;;;;;;5083598;28;20489;-75
2021/03/06 04:29:26;;;;;;;5.67;5.07;;;-4.60;85.50;;;;;;5085846;28;20441;-75
2021/03/06 04:31:52;;;;;;;8.03;5.10;;;-4.60;83.70;;;;;;5082595;28;20490;-75
2021/03/06 04:34:18;;;;;;;9.17;5.20;;;-4.70;84.20;;;;;;5084764;28;20521;-76
2021/03/06 04:36:45;;;;;;;7.83;5.17;;;-4.80;83.70;;;;;;5083943;28;20457;-74
2021/03/06 04:39:12;;;;;;;14.50;5.33;;;-4.90;85.00;;;;;;5078208;28;20549;-76
2021/03/06 04:41:38;;;;;;;6.07;5.00;;;-4.90;85.60;;;;;;5083781;28;20552;-75
2021/03/06 04:44:06;;;;;;;5.90;4.50;;;-4.90;87.70;;;;;;5076628;28;20813;-76
2021/03/06 04:46:33;;;;;;;7.27;4.83;;;-4.90;88.20;;;;;;5084242;28;20450;-75
2021/03/06 04:49:01;;;;;;;7.73;5.33;;;-4.90;87.10;;;;;;5083905;28;20499;-74
2021/03/06 04:51:27;;;;;;;8.03;4.70;;;-5.00;87.10;;;;;;5083599;28;20501;-75
2021/03/06 04:53:53;;;;;;;10.17;5.63;;;-5.00;87.50;;;;;;5081587;28;20842;-75
2021/03/06 04:56:20;;;;;;;7.43;4.50;;;-4.90;88.70;;;;;;5085126;28;20457;-76
2021/03/06 04:58:47;;;;;;;6.17;4.57;;;-4.90;87.30;;;;;;5087721;28;20480;-76
2021/03/06 05:01:13;;;;;;;8.80;4.47;;;-5.00;85.10;;;;;;5082072;28;20499;-77
2021/03/06 05:03:39;;;;;;;6.80;4.73;;;-5.00;85.80;;;;;;5088496;28;20460;-75
2021/03/06 05:06:06;;;;;;;8.30;5.57;;;-5.00;86.30;;;;;;5092022;28;20959;-76
2021/03/06 05:08:32;;;;;;;7.40;5.10;;;-4.90;86.00;;;;;;5082937;28;20450;-75
2021/03/06 05:10:58;;;;;;;6.33;4.77;;;-5.00;86.20;;;;;;5092205;28;20992;-76
2021/03/06 05:13:25;;;;;;;7.57;4.93;;;-4.90;86.40;;;;;;5078262;28;20537;-74
2021/03/06 05:15:52;;;;;;;8.27;4.40;;;-4.90;86.60;;;;;;5072266;28;20444;-76
2021/03/06 05:18:18;;;;;;;7.83;4.87;;;-4.90;85.60;;;;;;5078241;28;20509;-75
2021/03/06 05:20:44;;;;;;;5.63;5.03;;;-4.90;85.60;;;;;;5085745;28;20454;-76
2021/03/06 05:23:11;;;;;;;7.33;4.70;;;-4.90;85.10;;;;;;5078029;28;20456;-75
2021/03/06 05:25:38;;;;;;;9.37;5.17;;;-4.90;85.20;;;;;;5087686;28;20480;-75
2021/03/06 05:28:04;;;;;;;6.80;5.30;;;-4.90;85.00;;;;;;5085004;28;20466;-77
2021/03/06 05:30:32;;;;;;;9.07;5.03;;;-4.80;85.20;;;;;;5084384;28;21015;-77
2021/03/06 05:32:58;;;;;;;8.80;5.57;;;-4.90;84.60;;;;;;5084164;28;20464;-76
2021/03/06 05:35:24;;;;;;;7.13;5.20;;;-4.90;85.20;;;;;;5083420;28;20536;-76
2021/03/06 05:37:51;;;;;;;5.70;4.30;;;-5.00;84.80;;;;;;5079386;28;20464;-83
2021/03/06 05:40:18;;;;;;;5.80;5.20;;;-4.90;86.00;;;;;;5075374;28;20964;-81
2021/03/06 05:42:45;;;;;;;9.43;4.90;;;-4.80;88.00;;;;;;5092058;28;20913;-80
2021/03/06 05:45:11;;;;;;;7.57;5.67;;;-4.90;86.70;;;;;;5103265;28;20490;-78
2021/03/06 05:47:38;;;;;;;7.23;5.80;;;-4.90;86.30;;;;;;5109536;28;20447;-84
2021/03/06 05:50:07;;;;;;;6.40;5.43;;;-5.00;86.40;;;;;;5096218;28;20493;-79
2021/03/06 05:52:33;;;;;;;6.67;4.93;;;-5.00;85.70;;;;;;5092601;28;20455;-81
2021/03/06 05:55:01;;;;;;;5.83;4.90;;;-5.00;87.20;;;;;;5092362;28;20446;-81
2021/03/06 05:57:27;;;;;;;8.27;5.60;;;-5.00;86.90;;;;;;5095286;28;20967;-81
2021/03/06 05:59:55;;;;;;;8.00;5.10;;;-5.00;87.30;;;;;;5090459;28;20490;-81
2021/03/06 06:02:22;;;;;;;6.60;4.70;;;-5.00;89.40;;;;;;5085542;28;20504;-80
2021/03/06 06:04:52;;;;;;;10.83;5.80;;;-5.00;87.80;;;;;;5094193;28;20461;-83
2021/03/06 06:07:19;;;;;;;7.00;4.93;;;-5.00;88.50;;;;;;5094162;28;20853;-80
2021/03/06 06:09:48;;;;;;;10.30;5.70;;;-4.90;86.30;;;;;;5096900;28;20449;-82
2021/03/06 06:12:17;;;;;;;6.83;4.80;;;-5.00;86.10;;;;;;5096303;28;20457;-87
2021/03/06 06:14:47;;;;;;;7.43;4.60;;;-4.80;85.20;;;;;;5197650;22;20481;-82
2021/03/06 06:17:14;;;;;;;11.13;5.40;;;-4.80;83.30;;;;;;5073689;28;20496;-82
2021/03/06 06:19:40;;;;;;;8.67;5.00;;;-4.70;83.60;;;;;;5069283;28;20518;-83
2021/03/06 06:22:19;;;;;;;7.80;5.63;;;-4.70;83.20;;;;;;5072581;28;20528;-85
2021/03/06 06:24:47;;;;;;;7.80;5.07;;;-4.50;81.50;;;;;;5072953;28;20474;-82
2021/03/06 06:27:22;;;;;;;6.10;5.27;;;-4.60;80.90;;;;;;5071342;28;20543;-82
2021/03/06 06:29:49;;;;;;;6.97;5.67;;;-4.60;81.70;;;;;;5076632;28;20461;-84
2021/03/06 06:32:19;;;;;;;6.90;5.93;;;-4.50;82.50;;;;;;5069584;28;20502;-85
2021/03/06 06:35:03;;;;;;;8.20;5.60;;;-4.50;82.50;;;;;;5074835;28;20966;-83
2021/03/06 06:37:30;;;;;;;9.90;5.83;;;-4.40;82.10;;;;;;5054656;28;20472;-85
2021/03/06 06:39:58;;;;;;;7.97;5.10;;;-4.40;82.10;;;;;;5073900;28;20463;-86
2021/03/06 06:42:32;;;;;;;12.30;5.63;;;-4.20;79.40;;;;;;5068834;28;20532;-85
2021/03/06 06:44:59;;;;;;;5.93;5.17;;;-4.10;79.30;;;;;;5074632;28;20849;-83
2021/03/06 06:47:32;;;;;;;6.20;4.83;;;-4.10;79.70;;;;;;5067957;28;20840;-83
2021/03/06 06:49:59;;;;;;;5.73;4.50;;;-4.00;77.80;;;;;;5071171;28;20664;-84
2021/03/06 06:52:37;;;;;;;7.90;5.47;;;-3.90;77.00;;;;;;5066316;28;20513;-83
2021/03/06 06:55:06;;;;;;;8.10;5.57;;;-3.80;75.60;;;;;;5055107;28;20454;-80
2021/03/06 06:57:33;;;;;;;9.77;5.70;;;-3.80;75.50;;;;;;5069180;28;20455;-80
2021/03/06 07:00:01;;;;;;;10.30;4.90;;;-3.70;75.30;;;;;;5074674;28;20454;-83
2021/03/06 07:02:28;;;;;;;6.90;5.20;;;-3.60;74.90;;;;;;5061291;28;20450;-80
2021/03/06 07:04:56;;;;;;;6.93;5.07;;;-3.50;74.00;;;;;;5062865;28;20528;-82
2021/03/06 07:07:24;;;;;;;7.27;5.10;;;-3.40;73.40;;;;;;5073236;28;20531;-82
2021/03/06 07:10:10;;;;;;;13.00;5.47;;;-3.40;73.20;;;;;;5071618;28;20495;-84
2021/03/06 07:12:38;;;;;;;6.80;5.50;;;-3.20;73.20;;;;;;5074569;28;20578;-83
2021/03/06 07:15:15;;;;;;;7.37;5.27;;;-3.10;72.80;;;;;;5071967;28;20463;-81
2021/03/06 07:17:44;;;;;;;5.80;5.10;;;-2.90;72.70;;;;;;5065137;28;20476;-84
2021/03/06 07:20:12;;;;;;;7.50;5.20;;;-2.80;73.30;;;;;;5070831;28;20483;-80
2021/03/06 07:22:39;;;;;;;7.33;5.67;;;-2.70;71.90;;;;;;5077866;28;20455;-84
2021/03/06 07:25:06;;;;;;;8.67;5.37;;;-2.60;71.00;;;;;;5076170;28;20462;-81
2021/03/06 07:27:33;;;;;;;5.90;5.07;;;-2.50;70.50;;;;;;5078885;28;20574;-80
2021/03/06 07:30:00;;;;;;;6.40;4.63;;;-2.60;70.10;;;;;;5068295;28;20463;-83
2021/03/06 07:32:31;;;;;;;5.30;4.70;;;-2.40;69.60;;;;;;5071285;28;20469;-81
2021/03/06 07:35:04;;;;;;;7.63;5.17;;;-2.30;69.30;;;;;;5071323;28;20994;-80
2021/03/06 07:37:31;;;;;;;7.97;6.13;;;-2.10;68.80;;;;;;5074537;28;20522;-84
2021/03/06 07:39:59;;;;;;;10.10;5.23;;;-2.10;68.60;;;;;;5071223;28;20475;-81
2021/03/06 07:42:33;;;;;;;6.83;4.83;;;-1.90;68.40;;;;;;5078814;28;20467;-82
2021/03/06 07:45:01;;;;;;;6.30;5.40;;;-1.80;68.60;;;;;;5081129;28;20467;-82
2021/03/06 07:47:33;;;;;;;11.53;5.53;;;-1.80;67.90;;;;;;5075695;28;20455;-82
2021/03/06 07:50:02;;;;;;;7.90;5.03;;;-1.60;68.00;;;;;;5070372;28;21004;-80
2021/03/06 07:52:31;;;;;;;6.47;5.10;;;-1.50;67.50;;;;;;5074266;28;20479;-80
2021/03/06 07:54:59;;;;;;;14.80;5.10;;;-1.40;67.40;;;;;;5074539;28;20819;-82
2021/03/06 07:57:25;;;;;;;5.83;5.00;;;-1.20;67.60;;;;;;5077391;28;20437;-83
2021/03/06 07:59:54;;;;;;;11.20;5.53;;;-1.00;67.00;;;;;;5073196;28;20445;-81
2021/03/06 08:02:39;;;;;;;10.50;5.33;;;-0.90;66.80;;;;;;5076277;28;20456;-82
2021/03/06 08:05:07;;;;;;;6.00;5.17;;;-0.80;66.20;;;;;;5070015;28;20466;-82
2021/03/06 08:07:39;;;;;;;6.53;5.37;;;-0.70;65.80;;;;;;5065854;28;20514;-84
2021/03/06 08:10:06;;;;;;;10.73;5.83;;;-0.50;66.20;;;;;;5068253;28;20468;-81
2021/03/06 08:12:34;;;;;;;5.60;4.53;;;-0.40;65.10;;;;;;5074334;28;20879;-82
2021/03/06 08:15:27;;;;;;;8.27;5.07;;;-0.40;65.00;;;;;;5065115;28;20465;-80
2021/03/06 08:17:55;;;;;;;5.90;4.30;;;-0.20;64.60;;;;;;5076013;28;20490;-82
2021/03/06 08:20:30;;;;;;;7.03;4.80;;;-0.10;63.80;;;;;;5067473;28;20459;-81
2021/03/06 08:23:19;;;;;;;6.93;5.13;;;-0.10;63.80;;;;;;5072666;28;20451;-82
2021/03/06 08:25:47;;;;;;;6.50;4.93;;;0.20;63.90;;;;;;5073134;28;20468;-82
2021/03/06 08:28:29;;;;;;;11.17;5.10;;;0.30;63.90;;;;;;5082570;28;20486;-81
2021/03/06 08:30:55;;;;;;;7.60;5.97;;;0.60;63.60;;;;;;5067582;28;20447;-77
2021/03/06 08:33:22;;;;;;;10.43;6.07;;;0.60;63.00;;;;;;5050273;28;20199;-73
2021/03/06 08:35:49;;;;;;;9.00;5.37;;;0.80;62.40;;;;;;5054866;28;20474;-77
2021/03/06 08:38:31;;;;;;;6.50;5.50;;;1.00;62.50;;;;;;5048745;28;20468;-73
2021/03/06 08:40:59;;;;;;;6.37;5.17;;;0.70;61.50;;;;;;5051823;28;20449;-74
2021/03/06 08:43:25;;;;;;;13.63;5.47;;;0.80;60.90;;;;;;5057498;28;20456;-71
2021/03/06 08:45:52;;;;;;;7.20;4.80;;;1.00;60.80;;;;;;5049708;28;20555;-72
2021/03/06 08:48:23;;;;;;;5.20;4.70;;;1.20;60.10;;;;;;5052563;28;20473;-72
2021/03/06 08:50:50;;;;;;;9.02;5.80;;;1.30;59.80;;;;;;5058327;28;20541;-76
2021/03/06 08:53:17;;;;;;;9.37;5.90;;;1.70;59.40;;;;;;5056356;28;20221;-74
2021/03/06 08:55:45;;;;;;;7.60;5.07;;;2.00;58.90;;;;;;5061558;28;21021;-74
2021/03/06 08:58:13;;;;;;;7.40;4.90;;;1.80;57.40;;;;;;5055145;28;20451;-75
2021/03/06 09:00:41;;;;;;;10.03;5.70;;;1.90;57.00;;;;;;5058464;28;20499;-75
2021/03/06 09:03:14;;;;;;;5.80;5.17;;;2.20;56.70;;;;;;5054295;28;21355;-76
2021/03/06 09:05:43;;;;;;;7.73;5.60;;;2.00;55.10;;;;;;5056374;28;20456;-73
2021/03/06 09:08:09;;;;;;;9.90;5.17;;;2.40;54.90;;;;;;5050612;28;20455;-70
2021/03/06 09:10:39;;;;;;;13.47;5.43;;;2.70;54.50;;;;;;5048517;28;21064;-76
2021/03/06 09:13:12;;;;;;;7.10;5.40;;;2.80;52.60;;;;;;5053132;28;20509;-72
2021/03/06 09:15:42;;;;;;;7.23;4.60;;;2.90;52.30;;;;;;5051022;28;20448;-71
2021/03/06 09:18:10;;;;;;;6.17;4.83;;;2.90;50.30;;;;;;5051071;28;20475;-75
2021/03/06 09:20:43;;;;;;;5.77;5.17;;;3.20;49.70;;;;;;5050488;28;20449;-71
2021/03/06 09:23:10;;;;;;;5.90;4.57;;;2.80;48.60;;;;;;5052370;28;20854;-71
2021/03/06 09:25:39;;;;;;;7.47;5.27;;;2.60;48.80;;;;;;5053703;28;20459;-70
2021/03/06 09:28:08;;;;;;;7.57;4.63;;;3.10;49.70;;;;;;5057719;28;20576;-72
2021/03/06 09:30:38;;;;;;;6.60;4.77;;;3.50;50.80;;;;;;5061587;28;20450;-71
2021/03/06 09:33:05;;;;;;;8.17;6.40;;;3.60;48.20;;;;;;5058213;28;20531;-70
2021/03/06 09:35:31;;;;;;;5.27;4.77;;;3.70;48.00;;;;;;5053028;28;20899;-71
2021/03/06 09:38:11;;;;;;;8.13;5.17;;;3.70;47.20;;;;;;5062033;28;20530;-72
2021/03/06 09:40:43;;;;;;;6.70;5.30;;;3.70;46.40;;;;;;5057263;28;21149;-69
2021/03/06 09:43:12;;;;;;;5.70;4.60;;;3.70;47.00;;;;;;5058269;28;20546;-72
2021/03/06 09:45:39;;;;;;;6.67;4.97;;;3.80;46.30;;;;;;5059445;28;20507;-73
2021/03/06 09:48:11;;;;;;;6.57;5.30;;;4.00;46.30;;;;;;5065269;28;21223;-75
2021/03/06 09:50:39;;;;;;;13.50;5.80;;;4.10;46.10;;;;;;5055944;28;20828;-72
2021/03/06 09:53:18;;;;;;;6.10;4.40;;;4.10;46.30;;;;;;5064230;28;20449;-70
2021/03/06 09:55:45;;;;;;;5.63;5.03;;;4.00;45.20;;;;;;5058102;28;20453;-70
2021/03/06 09:58:23;;;;;;;6.73;4.10;;;3.60;45.10;;;;;;5057278;28;20534;-69
2021/03/06 10:00:50;;;;;;;8.57;4.50;;;3.40;44.70;;;;;;5056427;28;20436;-69
2021/03/06 10:03:31;;;;;;;6.30;4.57;;;3.70;44.80;;;;;;5061374;28;20948;-71
2021/03/06 10:05:59;;;;;;;4.10;3.73;;;4.00;45.00;;;;;;5057488;28;20479;-70
2021/03/06 10:08:28;;;;;;;6.30;4.40;;;4.00;44.80;;;;;;5058790;28;20452;-73
2021/03/06 10:10:55;;;;;;;4.40;4.00;;;4.30;45.10;;;;;;5057821;28;20608;-69
2021/03/06 10:13:22;;;;;;;4.80;4.30;;;4.50;43.50;;;;;;5056688;28;20482;-73
2021/03/06 10:15:49;;;;;;;5.60;4.63;;;4.70;43.60;;;;;;5051832;28;20978;-68
2021/03/06 10:18:15;;;;;;;7.70;4.40;;;4.50;42.30;;;;;;5049814;28;21286;-71
2021/03/06 10:20:41;;;;;;;6.50;4.37;;;4.40;42.70;;;;;;5054765;28;20745;-70
2021/03/06 10:23:08;;;;;;;5.87;5.27;;;4.60;42.70;;;;;;5055473;28;20452;-69
2021/03/06 10:25:35;;;;;;;4.07;3.60;;;4.30;40.90;;;;;;5052319;28;21028;-70
2021/03/06 10:28:09;;;;;;;6.33;4.23;;;4.00;40.60;;;;;;5058348;28;20446;-70
2021/03/06 10:30:39;;;;;;;9.73;4.03;;;4.00;40.10;;;;;;5058556;28;20468;-71
2021/03/06 10:33:17;;;;;;;4.17;3.43;;;4.70;39.90;;;;;;5057842;28;20441;-72
2021/03/06 10:35:46;;;;;;;5.63;3.60;;;5.00;38.90;;;;;;5053150;28;20877;-68
2021/03/06 10:38:24;;;;;;;6.17;4.53;;;5.10;37.90;;;;;;5054760;28;20434;-69
2021/03/06 10:40:52;;;;;;;6.43;3.50;;;5.20;37.50;;;;;;5057334;28;20855;-72
2021/03/06 10:43:30;;;;;;;4.63;3.33;;;5.40;37.60;;;;;;5056623;28;20507;-72
2021/03/06 10:46:09;;;;;;;3.30;3.00;;;5.40;36.90;;;;;;5052795;28;20462;-72
2021/03/06 10:48:36;;;;;;;3.43;2.93;;;5.50;36.90;;;;;;5052059;28;20539;-73
2021/03/06 10:51:03;;;;;;;6.97;3.10;;;5.30;35.10;;;;;;5053680;28;20469;-70
2021/03/06 10:53:30;;;;;;;2.97;2.60;;;4.90;33.80;;;;;;5056384;28;20453;-70
2021/03/06 10:55:58;;;;;;;2.60;2.40;;;4.90;33.60;;;;;;5058066;28;20502;-72
2021/03/06 10:58:44;;;;;;;4.90;2.43;;;5.30;33.80;;;;;;5054314;28;20459;-71
2021/03/06 11:01:11;;;;;;;3.17;2.87;;;5.30;33.50;;;;;;5058111;28;20485;-74
2021/03/06 11:03:42;;;;;;;4.37;2.97;;;5.10;32.70;;;;;;5058354;28;20451;-72
2021/03/06 11:06:08;;;;;;;3.53;2.90;;;5.40;34.20;;;;;;5059729;28;20487;-70
2021/03/06 11:08:35;;;;;;;3.60;3.30;;;5.60;33.30;;;;;;5049980;28;20977;-71
2021/03/06 11:11:03;;;;;;;3.90;2.97;;;5.60;33.40;;;;;;5052801;28;21370;-69
2021/03/06 11:13:42;;;;;;;3.00;2.70;;;5.20;32.50;;;;;;5051723;28;20489;-72
2021/03/06 11:16:09;;;;;;;2.60;2.40;;;5.30;32.50;;;;;;5056187;28;20464;-73
2021/03/06 11:18:37;;;;;;;5.30;2.30;;;5.30;31.10;;;;;;5053925;28;20496;-72
2021/03/06 11:21:04;;;;;;;4.10;2.47;;;5.10;30.20;;;;;;5055683;28;20464;-70
2021/03/06 11:23:30;;;;;;;5.17;3.20;;;5.40;30.90;;;;;;5051190;28;20449;-74
2021/03/06 11:25:57;;;;;;;2.70;2.50;;;5.20;31.00;;;;;;5054545;28;20547;-73
2021/03/06 11:28:24;;;;;;;4.10;3.53;;;5.30;31.60;;;;;;5054073;28;20461;-71
2021/03/06 11:30:51;;;;;;;3.87;3.30;;;5.20;31.50;;;;;;5059516;28;20437;-74
2021/03/06 11:33:19;;;;;;;5.73;3.10;;;5.40;31.90;;;;;;5061709;28;20536;-75
2021/03/06 11:35:48;;;;;;;3.90;3.20;;;5.80;38.90;;;;;;5058600;28;20515;-77
2021/03/06 11:38:16;;;;;;;3.73;2.70;;;6.00;33.30;;;;;;5056952;28;20563;-72
2021/03/06 11:40:44;;;;;;;3.03;2.80;;;5.20;30.00;;;;;;5060067;28;20684;-71
2021/03/06 11:43:11;;;;;;;3.43;2.80;;;5.40;30.50;;;;;;5058732;28;20578;-77
2021/03/06 11:45:39;;;;;;;3.97;3.00;;;5.10;30.00;;;;;;5056067;28;20673;-73
2021/03/06 11:48:07;;;;;;;2.90;2.60;;;5.40;30.80;;;;;;5059588;28;20789;-76
2021/03/06 11:50:36;;;;;;;7.53;3.40;;;5.60;30.90;;;;;;5061565;28;20462;-75
2021/03/06 11:53:03;;;;;;;4.60;3.33;;;5.80;31.10;;;;;;5058417;28;20497;-75
2021/03/06 11:55:30;;;;;;;3.30;2.80;;;5.80;31.20;;;;;;5056529;28;20455;-75
2021/03/06 11:57:56;;;;;;;5.23;2.83;;;5.70;30.40;;;;;;5058142;28;20898;-74
2021/03/06 12:00:24;;;;;;;6.30;3.00;;;5.70;30.40;;;;;;5060113;28;20456;-72
2021/03/06 12:02:51;;;;;;;2.70;2.50;;;5.40;30.50;;;;;;5066293;28;20449;-79
2021/03/06 12:05:18;;;;;;;3.23;2.93;;;5.30;30.10;;;;;;5060464;28;20469;-77
2021/03/06 12:07:45;;;;;;;7.10;2.97;;;5.60;30.40;;;;;;5065065;28;20542;-77
2021/03/06 12:10:14;;;;;;;3.80;3.23;;;5.70;30.60;;;;;;5058388;28;20445;-81
2021/03/06 12:12:43;;;;;;;2.73;2.53;;;5.60;29.90;;;;;;5062823;28;20496;-79
2021/03/06 12:15:11;;;;;;;3.43;2.70;;;5.50;29.80;;;;;;5065121;28;21143;-77
2021/03/06 12:17:37;;;;;;;2.93;2.73;;;5.50;29.70;;;;;;5063447;28;20565;-82
2021/03/06 12:20:07;;;;;;;3.10;2.80;;;5.50;29.80;;;;;;5063420;28;20924;-80
2021/03/06 12:22:33;;;;;;;6.73;3.00;;;5.90;30.00;;;;;;5063335;28;20452;-84
2021/03/06 12:24:59;;;;;;;4.53;3.17;;;5.70;30.00;;;;;;5065391;28;20469;-75
2021/03/06 12:27:26;;;;;;;3.47;3.17;;;6.20;30.00;;;;;;5066138;28;20508;-77
2021/03/06 12:29:52;;;;;;;3.20;2.90;;;6.10;30.00;;;;;;5061753;28;20468;-76
2021/03/06 12:32:19;;;;;;;4.93;3.07;;;6.20;30.90;;;;;;5062595;28;20471;-80
2021/03/06 12:34:45;;;;;;;5.83;3.83;;;6.30;31.70;;;;;;5069650;28;20510;-78
2021/03/06 12:37:12;;;;;;;4.20;3.80;;;5.80;29.80;;;;;;5063308;28;20478;-77
2021/03/06 12:39:39;;;;;;;3.40;2.97;;;6.10;30.30;;;;;;5065703;28;20464;-77
2021/03/06 12:42:06;;;;;;;4.33;3.70;;;6.10;30.60;;;;;;5061515;28;20512;-80
2021/03/06 12:44:32;;;;;;;4.40;3.07;;;6.20;30.90;;;;;;5071782;28;20542;-77
2021/03/06 12:46:59;;;;;;;5.50;2.90;;;6.20;30.60;;;;;;5062759;28;20543;-77
2021/03/06 12:49:25;;;;;;;3.30;3.00;;;6.20;31.10;;;;;;5052599;28;20451;-79
2021/03/06 12:51:51;;;;;;;50.10;21.90;;;6.30;31.20;;;;;;5065580;28;20471;-76
2021/03/06 12:54:19;;;;;;;3.53;3.20;;;6.40;30.50;;;;;;5063580;28;20455;-75
2021/03/06 12:56:47;;;;;;;3.00;2.70;;;5.80;29.60;;;;;;5069901;28;20506;-85